createdAt,value
2017-02-04T00:00:14.562Z,0
2017-02-04T00:01:26.010Z,0
2017-02-04T00:02:37.413Z,0
2017-02-04T00:03:48.814Z,0
2017-02-04T00:05:00.419Z,0
2017-02-04T00:06:12.026Z,0
2017-02-04T00:07:23.475Z,0
2017-02-04T00:08:34.873Z,0
2017-02-04T00:09:46.473Z,0
2017-02-04T00:10:57.878Z,0
2017-02-04T00:12:09.482Z,0
2017-02-04T00:13:20.940Z,0
2017-02-04T00:14:32.350Z,0
2017-02-04T00:15:43.751Z,0
2017-02-04T00:16:55.152Z,0
2017-02-04T00:18:06.754Z,0
2017-02-04T00:19:18.210Z,0
2017-02-04T00:20:29.814Z,0
2017-02-04T00:21:41.227Z,0
2017-02-04T00:22:52.671Z,0
2017-02-04T00:24:04.073Z,0
2017-02-04T00:25:15.518Z,0
2017-02-04T00:26:27.135Z,0
2017-02-04T00:27:38.542Z,0
2017-02-04T00:28:49.939Z,0
2017-02-04T00:30:01.545Z,0
2017-02-04T00:31:13.199Z,0
2017-02-04T00:32:24.610Z,0
2017-02-04T00:33:36.035Z,0
2017-02-04T00:34:47.631Z,0
2017-02-04T00:35:59.041Z,0
2017-02-04T00:37:10.494Z,0
2017-02-04T00:38:21.892Z,0
2017-02-04T00:39:33.502Z,0
2017-02-04T00:40:44.905Z,0
2017-02-04T00:41:56.305Z,0
2017-02-04T00:43:07.762Z,0
2017-02-04T00:44:19.370Z,0
2017-02-04T00:45:30.774Z,0
2017-02-04T00:46:42.177Z,0
2017-02-04T00:47:53.777Z,0
2017-02-04T00:49:05.231Z,0
2017-02-04T00:50:16.633Z,0
2017-02-04T00:51:28.238Z,0
2017-02-04T00:52:39.633Z,0
2017-02-04T00:53:51.042Z,0
2017-02-04T00:55:02.496Z,0
2017-02-04T00:56:13.898Z,0
2017-02-04T00:57:25.501Z,0
2017-02-04T00:58:36.901Z,0
2017-02-04T00:59:48.308Z,0
2017-02-04T01:00:59.763Z,0
2017-02-04T01:02:11.162Z,0
2017-02-04T01:03:22.569Z,0
2017-02-04T01:04:34.169Z,0
2017-02-04T01:05:45.562Z,0
2017-02-04T01:06:57.016Z,0
2017-02-04T01:08:08.426Z,0
2017-02-04T01:09:19.828Z,0
2017-02-04T01:10:31.271Z,0
2017-02-04T01:11:42.675Z,0
2017-02-04T01:12:54.328Z,0
2017-02-04T01:14:05.779Z,0
2017-02-04T01:15:17.186Z,0
2017-02-04T01:16:28.596Z,0
2017-02-04T01:17:39.996Z,0
2017-02-04T01:18:51.452Z,0
2017-02-04T01:20:02.854Z,0
2017-02-04T01:21:14.253Z,0
2017-02-04T01:22:25.656Z,0
2017-02-04T01:23:37.060Z,0
2017-02-04T01:24:48.523Z,0
2017-02-04T01:25:59.929Z,0
2017-02-04T01:27:11.331Z,0
2017-02-04T01:28:22.739Z,0
2017-02-04T01:29:34.145Z,0
2017-02-04T01:30:45.603Z,0
2017-02-04T01:31:57.213Z,0
2017-02-04T01:33:08.618Z,0
2017-02-04T01:34:20.023Z,0
2017-02-04T01:35:31.434Z,0
2017-02-04T01:36:43.083Z,0
2017-02-04T01:37:54.485Z,0
2017-02-04T01:39:05.893Z,0
2017-02-04T01:40:17.300Z,0
2017-02-04T01:41:28.709Z,0
2017-02-04T01:42:40.163Z,0
2017-02-04T01:43:51.569Z,0
2017-02-04T01:45:02.977Z,0
2017-02-04T01:46:14.377Z,0
2017-02-04T01:47:25.786Z,0
2017-02-04T01:48:37.243Z,0
2017-02-04T01:49:48.648Z,0
2017-02-04T01:51:00.251Z,0
2017-02-04T01:52:11.852Z,0
2017-02-04T01:53:23.259Z,0
2017-02-04T01:54:34.728Z,0
2017-02-04T01:55:46.538Z,0
2017-02-04T01:56:57.937Z,0
2017-02-04T01:58:09.343Z,0
2017-02-04T01:59:20.760Z,0
2017-02-04T02:00:32.217Z,0
2017-02-04T02:01:43.612Z,0
2017-02-04T02:02:55.021Z,0
2017-02-04T02:04:06.430Z,0
2017-02-04T02:05:18.047Z,0
2017-02-04T02:06:29.504Z,0
2017-02-04T02:07:41.111Z,0
2017-02-04T02:08:52.514Z,0
2017-02-04T02:10:03.926Z,0
2017-02-04T02:11:15.324Z,0
2017-02-04T02:12:26.782Z,0
2017-02-04T02:13:38.191Z,0
2017-02-04T02:14:49.798Z,0
2017-02-04T02:16:01.207Z,0
2017-02-04T02:17:12.809Z,0
2017-02-04T02:18:24.254Z,0
2017-02-04T02:19:35.657Z,0
2017-02-04T02:20:47.054Z,0
2017-02-04T02:21:58.451Z,0
2017-02-04T02:23:09.863Z,0
2017-02-04T02:24:21.317Z,0
2017-02-04T02:25:32.720Z,0
2017-02-04T02:26:44.124Z,0
2017-02-04T02:27:55.554Z,0
2017-02-04T02:29:06.963Z,0
2017-02-04T02:30:18.415Z,0
2017-02-04T02:31:29.825Z,0
2017-02-04T02:32:41.228Z,0
2017-02-04T02:33:52.632Z,0
2017-02-04T02:35:04.045Z,0
2017-02-04T02:36:15.503Z,0
2017-02-04T02:37:26.910Z,0
2017-02-04T02:38:38.313Z,0
2017-02-04T02:39:49.919Z,0
2017-02-04T02:41:01.327Z,0
2017-02-04T02:42:12.776Z,0
2017-02-04T02:43:24.179Z,0
2017-02-04T02:44:35.583Z,0
2017-02-04T02:45:46.991Z,0
2017-02-04T02:46:58.424Z,0
2017-02-04T02:48:09.872Z,0
2017-02-04T02:49:21.480Z,0
2017-02-04T02:50:32.883Z,0
2017-02-04T02:51:44.287Z,0
2017-02-04T02:52:55.687Z,0
2017-02-04T02:54:07.142Z,0
2017-02-04T02:55:18.549Z,0
2017-02-04T02:56:30.155Z,0
2017-02-04T02:57:41.567Z,0
2017-02-04T02:58:52.973Z,0
2017-02-04T03:00:04.424Z,0
2017-02-04T03:01:15.831Z,0
2017-02-04T03:02:27.235Z,0
2017-02-04T03:03:38.632Z,0
2017-02-04T03:04:50.039Z,0
2017-02-04T03:06:01.500Z,0
2017-02-04T03:07:13.108Z,0
2017-02-04T03:08:24.515Z,0
2017-02-04T03:09:35.922Z,0
2017-02-04T03:10:47.319Z,0
2017-02-04T03:11:58.781Z,0
2017-02-04T03:13:10.193Z,0
2017-02-04T03:14:21.607Z,0
2017-02-04T03:15:33.010Z,0
2017-02-04T03:16:44.415Z,0
2017-02-04T03:17:55.875Z,0
2017-02-04T03:19:07.273Z,0
2017-02-04T03:20:18.675Z,0
2017-02-04T03:21:30.076Z,0
2017-02-04T03:22:41.679Z,0
2017-02-04T03:23:53.131Z,0
2017-02-04T03:25:04.738Z,0
2017-02-04T03:26:16.338Z,0
2017-02-04T03:27:27.747Z,0
2017-02-04T03:28:39.154Z,0
2017-02-04T03:29:50.617Z,0
2017-02-04T03:31:02.019Z,0
2017-02-04T03:32:13.426Z,0
2017-02-04T03:33:24.827Z,0
2017-02-04T03:34:36.238Z,0
2017-02-04T03:35:47.688Z,0
2017-02-04T03:36:59.095Z,0
2017-02-04T03:38:10.699Z,0
2017-02-04T03:39:22.301Z,0
2017-02-04T03:40:33.704Z,0
2017-02-04T03:41:45.153Z,0
2017-02-04T03:42:56.555Z,0
2017-02-04T03:44:07.969Z,0
2017-02-04T03:45:19.580Z,0
2017-02-04T03:46:30.983Z,0
2017-02-04T03:47:42.438Z,0
2017-02-04T03:48:53.842Z,0
2017-02-04T03:50:05.248Z,0
2017-02-04T03:51:17.051Z,0
2017-02-04T03:52:28.456Z,0
2017-02-04T03:53:39.906Z,0
2017-02-04T03:54:51.309Z,0
2017-02-04T03:56:02.709Z,0
2017-02-04T03:57:14.112Z,0
2017-02-04T03:58:25.521Z,0
2017-02-04T03:59:36.978Z,0
2017-02-04T04:00:48.583Z,0
2017-02-04T04:01:59.986Z,0
2017-02-04T04:03:11.390Z,0
2017-02-04T04:04:22.790Z,0
2017-02-04T04:05:34.239Z,0
2017-02-04T04:06:45.644Z,0
2017-02-04T04:07:57.043Z,0
2017-02-04T04:09:08.451Z,0
2017-02-04T04:10:19.857Z,0
2017-02-04T04:11:31.320Z,0
2017-02-04T04:12:42.917Z,0
2017-02-04T04:13:54.522Z,0
2017-02-04T04:15:06.128Z,0
2017-02-04T04:16:17.536Z,0
2017-02-04T04:17:28.999Z,0
2017-02-04T04:18:40.399Z,0
2017-02-04T04:19:51.800Z,0
2017-02-04T04:21:03.207Z,0
2017-02-04T04:22:14.620Z,0
2017-02-04T04:23:26.080Z,0
2017-02-04T04:24:37.682Z,0
2017-02-04T04:25:49.090Z,0
2017-02-04T04:27:00.499Z,0
2017-02-04T04:28:12.103Z,0
2017-02-04T04:29:23.559Z,0
2017-02-04T04:30:34.970Z,0
2017-02-04T04:31:46.778Z,0
2017-02-04T04:32:58.178Z,0
2017-02-04T04:34:09.575Z,0
2017-02-04T04:35:21.022Z,0
2017-02-04T04:36:32.423Z,0
2017-02-04T04:37:43.825Z,0
2017-02-04T04:38:55.236Z,0
2017-02-04T04:40:06.638Z,0
2017-02-04T04:41:18.094Z,0
2017-02-04T04:42:29.496Z,0
2017-02-04T04:43:40.900Z,0
2017-02-04T04:44:52.299Z,0
2017-02-04T04:46:03.707Z,0
2017-02-04T04:47:15.155Z,0
2017-02-04T04:48:26.560Z,0
2017-02-04T04:49:37.967Z,0
2017-02-04T04:50:49.370Z,0
2017-02-04T04:52:00.771Z,0
2017-02-04T04:53:12.420Z,0
2017-02-04T04:54:24.020Z,0
2017-02-04T04:55:35.417Z,0
2017-02-04T04:56:46.821Z,0
2017-02-04T04:57:58.413Z,0
2017-02-04T04:59:09.858Z,0
2017-02-04T05:00:21.267Z,0
2017-02-04T05:01:32.670Z,0
2017-02-04T05:02:44.092Z,0
2017-02-04T05:03:55.699Z,0
2017-02-04T05:05:07.353Z,0
2017-02-04T05:06:18.752Z,0
2017-02-04T05:07:30.358Z,0
2017-02-04T05:08:41.958Z,0
2017-02-04T05:09:53.376Z,0
2017-02-04T05:11:04.831Z,0
2017-02-04T05:12:16.234Z,0
2017-02-04T05:13:27.838Z,0
2017-02-04T05:14:39.236Z,0
2017-02-04T05:15:50.644Z,0
2017-02-04T05:17:02.099Z,0
2017-02-04T05:18:13.698Z,0
2017-02-04T05:19:25.385Z,0
2017-02-04T05:20:36.787Z,0
2017-02-04T05:21:48.389Z,0
2017-02-04T05:22:59.848Z,0
2017-02-04T05:24:11.246Z,0
2017-02-04T05:25:22.645Z,0
2017-02-04T05:26:34.048Z,0
2017-02-04T05:27:45.450Z,0
2017-02-04T05:28:56.902Z,0
2017-02-04T05:30:08.502Z,0
2017-02-04T05:31:19.902Z,0
2017-02-04T05:32:31.508Z,0
2017-02-04T05:33:42.987Z,0
2017-02-04T05:34:54.444Z,0
2017-02-04T05:36:06.051Z,0
2017-02-04T05:37:17.455Z,0
2017-02-04T05:38:28.852Z,0
2017-02-04T05:39:40.257Z,0
2017-02-04T05:40:51.706Z,0
2017-02-04T05:42:03.109Z,0
2017-02-04T05:43:14.509Z,0
2017-02-04T05:44:25.907Z,0
2017-02-04T05:45:37.509Z,0
2017-02-04T05:46:48.964Z,0
2017-02-04T05:48:00.577Z,0
2017-02-04T05:49:11.990Z,0
2017-02-04T05:50:23.412Z,0
2017-02-04T05:51:34.811Z,0
2017-02-04T05:52:46.269Z,0
2017-02-04T05:53:57.663Z,0
2017-02-04T05:55:09.072Z,0
2017-02-04T05:56:20.481Z,0
2017-02-04T05:57:31.881Z,0
2017-02-04T05:58:43.342Z,0
2017-02-04T05:59:54.764Z,0
2017-02-04T06:01:06.165Z,0
2017-02-04T06:02:17.765Z,0
2017-02-04T06:03:29.374Z,0
2017-02-04T06:04:40.827Z,0
2017-02-04T06:05:52.229Z,0
2017-02-04T06:07:03.642Z,0
2017-02-04T06:08:15.043Z,0
2017-02-04T06:09:26.456Z,0
2017-02-04T06:10:37.916Z,0
2017-02-04T06:11:49.317Z,0
2017-02-04T06:13:00.925Z,0
2017-02-04T06:14:12.341Z,0
2017-02-04T06:15:23.749Z,0
2017-02-04T06:16:35.203Z,0
2017-02-04T06:17:46.604Z,0
2017-02-04T06:18:58.008Z,0
2017-02-04T06:20:09.418Z,0
2017-02-04T06:21:20.817Z,0
2017-02-04T06:22:32.274Z,0
2017-02-04T06:23:43.679Z,0
2017-02-04T06:24:55.081Z,0
2017-02-04T06:26:06.487Z,0
2017-02-04T06:27:17.888Z,4
2017-02-04T06:28:29.337Z,0
2017-02-04T06:29:40.736Z,4
2017-02-04T06:30:52.139Z,4
2017-02-04T06:32:03.533Z,4
2017-02-04T06:33:14.942Z,4
2017-02-04T06:34:26.395Z,4
2017-02-04T06:35:37.811Z,8
2017-02-04T06:36:49.217Z,12
2017-02-04T06:38:00.625Z,16
2017-02-04T06:39:12.032Z,16
2017-02-04T06:40:23.689Z,20
2017-02-04T06:41:35.087Z,24
2017-02-04T06:42:46.483Z,32
2017-02-04T06:43:57.884Z,36
2017-02-04T06:45:09.288Z,44
2017-02-04T06:46:20.742Z,52
2017-02-04T06:47:32.144Z,60
2017-02-04T06:48:43.541Z,72
2017-02-04T06:49:54.942Z,84
2017-02-04T06:51:06.351Z,100
2017-02-04T06:52:17.795Z,116
2017-02-04T06:53:29.205Z,132
2017-02-04T06:54:40.809Z,156
2017-02-04T06:55:52.210Z,176
2017-02-04T06:57:03.614Z,200
2017-02-04T06:58:15.075Z,224
2017-02-04T06:59:26.673Z,252
2017-02-04T07:00:38.073Z,284
2017-02-04T07:01:49.478Z,320
2017-02-04T07:03:00.878Z,352
2017-02-04T07:04:12.339Z,392
2017-02-04T07:05:23.780Z,432
2017-02-04T07:06:35.380Z,476
2017-02-04T07:07:46.775Z,520
2017-02-04T07:08:58.380Z,568
2017-02-04T07:10:09.837Z,620
2017-02-04T07:11:21.243Z,676
2017-02-04T07:12:32.653Z,736
2017-02-04T07:13:44.264Z,800
2017-02-04T07:14:55.673Z,868
2017-02-04T07:16:07.134Z,940
2017-02-04T07:17:18.542Z,1020
2017-02-04T07:18:29.932Z,1096
2017-02-04T07:19:41.546Z,1176
2017-02-04T07:20:53.156Z,1260
2017-02-04T07:22:04.604Z,1356
2017-02-04T07:23:16.007Z,1452
2017-02-04T07:24:27.409Z,1552
2017-02-04T07:25:38.808Z,1660
2017-02-04T07:26:50.221Z,1784
2017-02-04T07:28:01.676Z,2516
2017-02-04T07:29:13.280Z,6920
2017-02-04T07:30:24.676Z,9332
2017-02-04T07:31:36.283Z,9156
2017-02-04T07:32:47.686Z,6268
2017-02-04T07:33:59.140Z,3392
2017-02-04T07:35:10.541Z,3032
2017-02-04T07:36:22.148Z,4476
2017-02-04T07:37:33.554Z,5916
2017-02-04T07:38:44.955Z,6220
2017-02-04T07:39:56.618Z,5248
2017-02-04T07:41:08.025Z,5616
2017-02-04T07:42:19.434Z,7064
2017-02-04T07:43:30.847Z,7656
2017-02-04T07:44:42.248Z,10120
2017-02-04T07:45:53.702Z,6812
2017-02-04T07:47:05.104Z,5552
2017-02-04T07:48:16.523Z,6748
2017-02-04T07:49:27.933Z,7188
2017-02-04T07:50:39.334Z,5332
2017-02-04T07:51:50.791Z,5636
2017-02-04T07:53:02.189Z,5104
2017-02-04T07:54:13.594Z,5840
2017-02-04T07:55:25.205Z,7452
2017-02-04T07:56:36.621Z,6100
2017-02-04T07:57:48.087Z,6644
2017-02-04T07:58:59.496Z,9704
2017-02-04T08:00:10.904Z,11312
2017-02-04T08:01:22.709Z,8720
2017-02-04T08:02:34.112Z,7996
2017-02-04T08:03:45.562Z,7080
2017-02-04T08:04:56.968Z,5452
2017-02-04T08:06:08.380Z,5720
2017-02-04T08:07:19.994Z,5136
2017-02-04T08:08:31.599Z,6696
2017-02-04T08:09:43.051Z,8136
2017-02-04T08:10:54.454Z,8064
2017-02-04T08:12:05.861Z,7196
2017-02-04T08:13:17.267Z,6184
2017-02-04T08:14:28.874Z,6080
2017-02-04T08:15:40.328Z,7792
2017-02-04T08:16:51.733Z,9132
2017-02-04T08:18:03.134Z,12048
2017-02-04T08:19:14.543Z,23296
2017-02-04T08:20:25.945Z,34464
2017-02-04T08:21:37.600Z,34720
2017-02-04T08:22:49.001Z,32352
2017-02-04T08:24:00.412Z,29632
2017-02-04T08:25:11.838Z,29248
2017-02-04T08:26:23.448Z,26784
2017-02-04T08:27:34.910Z,22944
2017-02-04T08:28:46.360Z,16832
2017-02-04T08:29:57.758Z,20352
2017-02-04T08:31:09.376Z,22336
2017-02-04T08:32:20.780Z,19424
2017-02-04T08:33:32.236Z,20992
2017-02-04T08:34:43.651Z,22080
2017-02-04T08:35:55.063Z,22880
2017-02-04T08:37:06.484Z,20576
2017-02-04T08:38:17.893Z,19936
2017-02-04T08:39:29.349Z,18048
2017-02-04T08:40:40.959Z,21440
2017-02-04T08:41:52.366Z,21824
2017-02-04T08:43:03.979Z,17632
2017-02-04T08:44:15.386Z,19392
2017-02-04T08:45:26.842Z,23776
2017-02-04T08:46:38.259Z,31392
2017-02-04T08:47:49.663Z,37536
2017-02-04T08:49:01.273Z,43680
2017-02-04T08:50:12.880Z,42016
2017-02-04T08:51:24.348Z,38080
2017-02-04T08:52:35.965Z,39968
2017-02-04T08:53:47.386Z,40320
2017-02-04T08:54:58.801Z,35456
2017-02-04T08:56:10.218Z,30656
2017-02-04T08:57:21.682Z,35936
2017-02-04T08:58:33.096Z,49888
2017-02-04T08:59:44.510Z,46720
2017-02-04T09:00:55.917Z,25504
2017-02-04T09:02:07.539Z,19200
2017-02-04T09:03:19.004Z,11780
2017-02-04T09:04:30.423Z,23616
2017-02-04T09:05:41.832Z,40352
2017-02-04T09:06:53.247Z,30016
2017-02-04T09:08:04.663Z,30112
2017-02-04T09:09:16.131Z,31552
2017-02-04T09:10:27.545Z,26176
2017-02-04T09:11:38.964Z,22336
2017-02-04T09:12:50.379Z,22272
2017-02-04T09:14:01.793Z,25120
2017-02-04T09:15:13.464Z,28128
2017-02-04T09:16:24.871Z,28992
2017-02-04T09:17:36.289Z,27168
2017-02-04T09:18:47.700Z,24864
2017-02-04T09:19:59.116Z,24128
2017-02-04T09:21:10.579Z,25088
2017-02-04T09:22:21.998Z,25120
2017-02-04T09:23:33.414Z,27872
2017-02-04T09:24:45.029Z,28704
2017-02-04T09:25:56.446Z,29248
2017-02-04T09:27:07.905Z,27648
2017-02-04T09:28:19.320Z,30048
2017-02-04T09:29:30.941Z,32928
2017-02-04T09:30:42.356Z,35680
2017-02-04T09:31:53.966Z,36128
2017-02-04T09:33:05.439Z,34752
2017-02-04T09:34:16.856Z,33664
2017-02-04T09:35:28.271Z,30240
2017-02-04T09:36:39.887Z,30560
2017-02-04T09:37:51.298Z,34272
2017-02-04T09:39:02.761Z,36128
2017-02-04T09:40:14.182Z,45888
2017-02-04T09:41:25.600Z,45376
2017-02-04T09:42:37.015Z,43680
2017-02-04T09:43:48.427Z,40544
2017-02-04T09:44:59.887Z,36256
2017-02-04T09:46:11.297Z,26016
2017-02-04T09:47:22.710Z,29504
2017-02-04T09:48:34.333Z,29536
2017-02-04T09:49:45.745Z,25856
2017-02-04T09:50:57.216Z,26432
2017-02-04T09:52:08.633Z,33152
2017-02-04T09:53:20.049Z,34240
2017-02-04T09:54:31.465Z,22240
2017-02-04T09:55:42.874Z,21856
2017-02-04T09:56:54.342Z,26624
2017-02-04T09:58:05.763Z,28864
2017-02-04T09:59:17.178Z,24576
2017-02-04T10:00:28.599Z,25888
2017-02-04T10:01:40.014Z,27904
2017-02-04T10:02:51.473Z,28288
2017-02-04T10:04:03.093Z,28032
2017-02-04T10:05:14.516Z,29536
2017-02-04T10:06:26.138Z,29696
2017-02-04T10:07:37.754Z,28544
2017-02-04T10:08:49.416Z,28192
2017-02-04T10:10:00.832Z,28640
2017-02-04T10:11:12.243Z,28800
2017-02-04T10:12:23.662Z,32192
2017-02-04T10:13:35.081Z,33792
2017-02-04T10:14:46.550Z,34656
2017-02-04T10:15:58.170Z,39648
2017-02-04T10:17:09.789Z,32736
2017-02-04T10:18:21.407Z,35552
2017-02-04T10:19:32.846Z,36896
2017-02-04T10:20:44.313Z,34592
2017-02-04T10:21:55.939Z,26752
2017-02-04T10:23:07.359Z,28992
2017-02-04T10:24:18.778Z,24864
2017-02-04T10:25:30.200Z,23872
2017-02-04T10:26:41.667Z,22656
2017-02-04T10:27:53.286Z,23104
2017-02-04T10:29:04.708Z,27584
2017-02-04T10:30:16.123Z,24800
2017-02-04T10:31:27.548Z,27552
2017-02-04T10:32:39.010Z,25728
2017-02-04T10:33:50.421Z,23904
2017-02-04T10:35:01.833Z,24960
2017-02-04T10:36:13.651Z,23328
2017-02-04T10:37:25.071Z,27392
2017-02-04T10:38:36.549Z,26656
2017-02-04T10:39:47.955Z,24064
2017-02-04T10:40:59.570Z,25152
2017-02-04T10:42:10.996Z,24064
2017-02-04T10:43:22.413Z,23904
2017-02-04T10:44:33.883Z,24416
2017-02-04T10:45:45.311Z,24640
2017-02-04T10:46:56.727Z,21280
2017-02-04T10:48:08.144Z,20832
2017-02-04T10:49:19.569Z,18272
2017-02-04T10:50:31.038Z,18112
2017-02-04T10:51:42.474Z,21216
2017-02-04T10:52:53.887Z,21120
2017-02-04T10:54:05.295Z,22400
2017-02-04T10:55:16.705Z,21344
2017-02-04T10:56:28.166Z,22144
2017-02-04T10:57:39.593Z,23616
2017-02-04T10:58:51.001Z,25504
2017-02-04T11:00:02.417Z,19872
2017-02-04T11:01:13.835Z,24704
2017-02-04T11:02:25.499Z,24480
2017-02-04T11:03:36.914Z,14784
2017-02-04T11:04:48.332Z,11552
2017-02-04T11:06:00.144Z,13016
2017-02-04T11:07:11.558Z,15392
2017-02-04T11:08:23.018Z,16352
2017-02-04T11:09:34.438Z,16768
2017-02-04T11:10:46.051Z,16832
2017-02-04T11:11:57.462Z,15904
2017-02-04T11:13:08.875Z,13636
2017-02-04T11:14:20.343Z,13520
2017-02-04T11:15:31.955Z,14252
2017-02-04T11:16:43.372Z,13280
2017-02-04T11:17:54.781Z,12556
2017-02-04T11:19:06.192Z,12172
2017-02-04T11:20:17.687Z,11500
2017-02-04T11:21:29.093Z,11396
2017-02-04T11:22:40.496Z,11796
2017-02-04T11:23:51.913Z,12368
2017-02-04T11:25:03.325Z,12252
2017-02-04T11:26:14.785Z,12224
2017-02-04T11:27:26.406Z,12576
2017-02-04T11:28:37.823Z,13356
2017-02-04T11:29:49.632Z,12944
2017-02-04T11:31:01.043Z,12276
2017-02-04T11:32:12.504Z,11680
2017-02-04T11:33:23.914Z,11252
2017-02-04T11:34:35.325Z,10804
2017-02-04T11:35:46.743Z,10336
2017-02-04T11:36:58.158Z,10708
2017-02-04T11:38:09.621Z,10888
2017-02-04T11:39:21.225Z,10400
2017-02-04T11:40:32.639Z,10248
2017-02-04T11:41:44.049Z,10496
2017-02-04T11:42:55.465Z,10036
2017-02-04T11:44:06.919Z,9568
2017-02-04T11:45:18.335Z,9316
2017-02-04T11:46:29.749Z,9212
2017-02-04T11:47:41.159Z,9192
2017-02-04T11:48:52.567Z,8912
2017-02-04T11:50:04.030Z,8548
2017-02-04T11:51:15.435Z,8292
2017-02-04T11:52:27.057Z,8096
2017-02-04T11:53:38.663Z,7924
2017-02-04T11:54:50.067Z,7868
2017-02-04T11:56:01.534Z,7836
2017-02-04T11:57:12.943Z,7896
2017-02-04T11:58:24.352Z,8064
2017-02-04T11:59:35.764Z,8264
2017-02-04T12:00:47.170Z,8512
2017-02-04T12:01:58.631Z,8480
2017-02-04T12:03:10.437Z,8684
2017-02-04T12:04:21.854Z,8912
2017-02-04T12:05:33.467Z,9120
2017-02-04T12:06:45.075Z,9376
2017-02-04T12:07:56.535Z,9724
2017-02-04T12:09:07.939Z,9744
2017-02-04T12:10:19.750Z,9912
2017-02-04T12:11:31.165Z,9796
2017-02-04T12:12:42.581Z,9532
2017-02-04T12:13:54.444Z,9472
2017-02-04T12:15:05.861Z,9396
2017-02-04T12:16:17.263Z,9188
2017-02-04T12:17:28.881Z,8956
2017-02-04T12:18:40.293Z,8688
2017-02-04T12:19:51.754Z,8484
2017-02-04T12:21:03.167Z,8384
2017-02-04T12:22:14.782Z,8368
2017-02-04T12:23:26.193Z,8172
2017-02-04T12:24:37.600Z,8012
2017-02-04T12:25:49.065Z,7764
2017-02-04T12:27:00.685Z,7632
2017-02-04T12:28:12.100Z,7628
2017-02-04T12:29:23.718Z,7436
2017-02-04T12:30:35.132Z,7264
2017-02-04T12:31:46.584Z,7040
2017-02-04T12:32:57.998Z,6864
2017-02-04T12:34:09.408Z,6736
2017-02-04T12:35:20.831Z,6664
2017-02-04T12:36:32.244Z,6636
2017-02-04T12:37:43.704Z,6608
2017-02-04T12:38:55.115Z,6548
2017-02-04T12:40:06.731Z,6448
2017-02-04T12:41:18.137Z,6384
2017-02-04T12:42:29.563Z,6336
2017-02-04T12:43:41.020Z,6344
2017-02-04T12:44:52.421Z,6344
2017-02-04T12:46:03.835Z,6268
2017-02-04T12:47:15.243Z,6216
2017-02-04T12:48:26.856Z,6136
2017-02-04T12:49:38.547Z,6052
2017-02-04T12:50:49.961Z,5956
2017-02-04T12:52:01.578Z,5860
2017-02-04T12:53:13.190Z,5776
2017-02-04T12:54:24.595Z,5736
2017-02-04T12:55:36.449Z,5692
2017-02-04T12:56:47.862Z,5636
2017-02-04T12:57:59.271Z,5580
2017-02-04T12:59:10.678Z,5500
2017-02-04T13:00:22.083Z,5420
2017-02-04T13:01:33.541Z,5368
2017-02-04T13:02:44.954Z,5352
2017-02-04T13:03:56.358Z,5348
2017-02-04T13:05:07.770Z,5336
2017-02-04T13:06:19.190Z,5324
2017-02-04T13:07:30.652Z,5292
2017-02-04T13:08:42.261Z,5252
2017-02-04T13:09:53.867Z,5208
2017-02-04T13:11:05.270Z,5156
2017-02-04T13:12:16.901Z,5100
2017-02-04T13:13:28.358Z,5040
2017-02-04T13:14:39.770Z,4992
2017-02-04T13:15:51.185Z,4940
2017-02-04T13:17:02.594Z,4880
2017-02-04T13:18:14.204Z,4824
2017-02-04T13:19:25.865Z,4768
2017-02-04T13:20:37.471Z,4712
2017-02-04T13:21:48.880Z,4652
2017-02-04T13:23:00.288Z,4592
2017-02-04T13:24:11.698Z,4532
2017-02-04T13:25:23.159Z,4460
2017-02-04T13:26:34.570Z,4392
2017-02-04T13:27:46.179Z,4320
2017-02-04T13:28:57.586Z,4244
2017-02-04T13:30:08.997Z,4168
2017-02-04T13:31:20.464Z,4092
2017-02-04T13:32:32.069Z,4024
2017-02-04T13:33:43.876Z,3948
2017-02-04T13:34:55.292Z,3892
2017-02-04T13:36:06.702Z,3836
2017-02-04T13:37:18.164Z,3788
2017-02-04T13:38:29.574Z,3744
2017-02-04T13:39:40.980Z,3708
2017-02-04T13:40:52.393Z,3672
2017-02-04T13:42:03.803Z,3624
2017-02-04T13:43:15.260Z,3584
2017-02-04T13:44:26.670Z,3544
2017-02-04T13:45:38.080Z,3500
2017-02-04T13:46:49.486Z,3456
2017-02-04T13:48:00.897Z,3420
2017-02-04T13:49:12.360Z,3380
2017-02-04T13:50:23.775Z,3340
2017-02-04T13:51:35.203Z,3308
2017-02-04T13:52:46.616Z,3276
2017-02-04T13:53:58.030Z,3248
2017-02-04T13:55:09.492Z,3224
2017-02-04T13:56:20.896Z,3196
2017-02-04T13:57:32.506Z,3176
2017-02-04T13:58:44.115Z,3156
2017-02-04T13:59:55.724Z,3128
2017-02-04T14:01:07.202Z,3096
2017-02-04T14:02:18.613Z,3056
2017-02-04T14:03:30.025Z,3000
2017-02-04T14:04:41.433Z,2940
2017-02-04T14:05:52.844Z,2864
2017-02-04T14:07:04.301Z,2772
2017-02-04T14:08:15.708Z,2672
2017-02-04T14:09:27.325Z,2576
2017-02-04T14:10:38.935Z,2476
2017-02-04T14:11:50.346Z,2396
2017-02-04T14:13:01.799Z,2328
2017-02-04T14:14:13.202Z,2252
2017-02-04T14:15:24.619Z,2184
2017-02-04T14:16:36.027Z,2120
2017-02-04T14:17:47.431Z,2068
2017-02-04T14:18:58.898Z,2024
2017-02-04T14:20:10.513Z,1988
2017-02-04T14:21:21.920Z,1964
2017-02-04T14:22:33.331Z,1944
2017-02-04T14:23:44.735Z,1932
2017-02-04T14:24:56.199Z,1932
2017-02-04T14:26:07.613Z,1936
2017-02-04T14:27:19.217Z,1944
2017-02-04T14:28:30.629Z,1960
2017-02-04T14:29:42.041Z,1968
2017-02-04T14:30:53.697Z,1964
2017-02-04T14:32:05.103Z,1948
2017-02-04T14:33:16.511Z,1920
2017-02-04T14:34:27.919Z,1880
2017-02-04T14:35:39.332Z,1828
2017-02-04T14:36:50.788Z,1772
2017-02-04T14:38:02.195Z,1720
2017-02-04T14:39:13.605Z,1676
2017-02-04T14:40:25.015Z,1640
2017-02-04T14:41:36.617Z,1604
2017-02-04T14:42:48.282Z,1576
2017-02-04T14:43:59.694Z,1544
2017-02-04T14:45:11.109Z,1512
2017-02-04T14:46:22.519Z,1480
2017-02-04T14:47:33.927Z,1444
2017-02-04T14:48:45.387Z,1404
2017-02-04T14:49:56.794Z,1368
2017-02-04T14:51:08.207Z,1332
2017-02-04T14:52:19.618Z,1304
2017-02-04T14:53:31.235Z,1284
2017-02-04T14:54:42.702Z,1268
2017-02-04T14:55:54.105Z,1260
2017-02-04T14:57:05.517Z,1260
2017-02-04T14:58:16.923Z,1256
2017-02-04T14:59:28.336Z,1252
2017-02-04T15:00:39.799Z,1240
2017-02-04T15:01:51.207Z,1228
2017-02-04T15:03:02.619Z,1208
2017-02-04T15:04:14.024Z,1180
2017-02-04T15:05:25.831Z,1152
2017-02-04T15:06:37.283Z,1120
2017-02-04T15:07:48.692Z,1084
2017-02-04T15:09:00.100Z,1048
2017-02-04T15:10:11.510Z,1016
2017-02-04T15:11:22.918Z,980
2017-02-04T15:12:34.384Z,956
2017-02-04T15:13:45.795Z,932
2017-02-04T15:14:57.201Z,920
2017-02-04T15:16:08.616Z,908
2017-02-04T15:17:20.025Z,892
2017-02-04T15:18:31.487Z,880
2017-02-04T15:19:42.899Z,868
2017-02-04T15:20:54.509Z,852
2017-02-04T15:22:05.917Z,836
2017-02-04T15:23:17.322Z,816
2017-02-04T15:24:28.778Z,792
2017-02-04T15:25:40.378Z,768
2017-02-04T15:26:51.789Z,744
2017-02-04T15:28:03.399Z,720
2017-02-04T15:29:14.807Z,692
2017-02-04T15:30:26.260Z,672
2017-02-04T15:31:37.667Z,640
2017-02-04T15:32:49.071Z,612
2017-02-04T15:34:00.473Z,572
2017-02-04T15:35:11.888Z,532
2017-02-04T15:36:23.344Z,500
2017-02-04T15:37:34.958Z,468
2017-02-04T15:38:46.365Z,452
2017-02-04T15:39:57.779Z,440
2017-02-04T15:41:09.187Z,432
2017-02-04T15:42:20.637Z,420
2017-02-04T15:43:32.048Z,404
2017-02-04T15:44:43.455Z,392
2017-02-04T15:45:54.864Z,384
2017-02-04T15:47:06.273Z,372
2017-02-04T15:48:17.927Z,364
2017-02-04T15:49:29.342Z,352
2017-02-04T15:50:40.753Z,340
2017-02-04T15:51:52.163Z,328
2017-02-04T15:53:03.576Z,316
2017-02-04T15:54:15.041Z,304
2017-02-04T15:55:26.451Z,292
2017-02-04T15:56:38.058Z,272
2017-02-04T15:57:49.466Z,264
2017-02-04T15:59:00.872Z,248
2017-02-04T16:00:12.331Z,232
2017-02-04T16:01:23.943Z,216
2017-02-04T16:02:35.350Z,200
2017-02-04T16:03:46.747Z,184
2017-02-04T16:04:58.348Z,172
2017-02-04T16:06:10.011Z,156
2017-02-04T16:07:21.418Z,144
2017-02-04T16:08:33.024Z,136
2017-02-04T16:09:44.434Z,124
2017-02-04T16:10:55.843Z,116
2017-02-04T16:12:07.305Z,108
2017-02-04T16:13:18.720Z,104
2017-02-04T16:14:30.129Z,96
2017-02-04T16:15:41.544Z,92
2017-02-04T16:16:52.958Z,80
2017-02-04T16:18:04.372Z,76
2017-02-04T16:19:15.979Z,68
2017-02-04T16:20:27.382Z,64
2017-02-04T16:21:38.990Z,56
2017-02-04T16:22:50.651Z,52
2017-02-04T16:24:02.060Z,44
2017-02-04T16:25:13.668Z,40
2017-02-04T16:26:25.074Z,32
2017-02-04T16:27:36.676Z,32
2017-02-04T16:28:48.332Z,28